Time;durP1;ratioP1;P1;durP2;ratioP2;P2;SDS_P1;SDS_P2;PMS_P1;PMS_P2;Temp;Humidity;BMP_temperature;BMP_pressure;BME280_temperature;BME280_humidity;BME280_pressure;Samples;Min_cycle;Max_cycle;Signal;HPM_P1;HPM_P2
2023/12/14 00:01:13;;;;;;;;;;;;;;;9.42;81.84;100872.13;7369755;19;19914;-64
2023/12/14 00:03:40;;;;;;;;;;;;;;;9.42;81.80;100876.47;7334079;19;19919;-65
2023/12/14 00:06:24;;;;;;;;;;;;;;;9.41;81.35;100873.00;7375478;19;19919;-64
2023/12/14 00:08:49;;;;;;;;;;;;;;;9.41;81.85;100870.41;7366494;19;19919;-65
2023/12/14 00:11:14;;;;;;;;;;;;;;;9.40;81.95;100876.50;7364862;19;19930;-65
2023/12/14 00:16:42;;;;;;;;;;;;;;;9.40;81.92;100873.91;7366054;19;19934;-65
2023/12/14 00:19:08;;;;;;;;;;;;;;;9.41;81.83;100872.16;7365816;19;20272;-65
2023/12/14 00:21:33;;;;;;;;;;;;;;;9.42;81.78;100874.72;7359942;19;19951;-65
2023/12/14 00:27:01;;;;;;;;;;;;;;;9.44;81.74;100867.75;7361049;19;19938;-65
2023/12/14 00:29:26;;;;;;;;;;;;;;;9.45;81.94;100866.88;7366471;19;19926;-65
2023/12/14 00:31:52;;;;;;;;;;;;;;;9.46;81.83;100855.56;7358635;19;19915;-65
2023/12/14 00:34:17;;;;;;;;;;;;;;;9.48;81.66;100861.63;7364793;19;20368;-65
2023/12/14 00:36:42;;;;;;;;;;;;;;;9.51;81.70;100853.75;7361222;19;19918;-65
2023/12/14 00:39:08;;;;;;;;;;;;;;;9.53;81.86;100862.41;7367115;19;19942;-65
2023/12/14 00:41:33;;;;;;;;;;;;;;;9.54;82.26;100861.53;7364350;19;19925;-65
2023/12/14 00:43:58;;;;;;;;;;;;;;;9.56;82.12;100851.91;7359987;19;19919;-65
2023/12/14 00:46:23;;;;;;;;;;;;;;;9.58;82.15;100850.16;7360021;19;20338;-65
2023/12/14 00:48:49;;;;;;;;;;;;;;;9.61;82.57;100850.09;7362606;19;19937;-65
2023/12/14 00:51:14;;;;;;;;;;;;;;;9.61;82.19;100839.66;7368448;19;19983;-65
2023/12/14 00:53:39;;;;;;;;;;;;;;;9.64;82.66;100844.00;7362738;19;19923;-65
2023/12/14 00:56:07;;;;;;;;;;;;;;;9.68;83.02;100843.06;7367794;19;19919;-65
2023/12/14 00:58:32;;;;;;;;;;;;;;;9.69;82.76;100846.53;7367217;19;19947;-65
2023/12/14 01:00:57;;;;;;;;;;;;;;;9.71;82.89;100845.59;7366544;19;19914;-65
2023/12/14 01:03:22;;;;;;;;;;;;;;;9.72;82.97;100847.31;7363980;19;19932;-65
2023/12/14 01:05:48;;;;;;;;;;;;;;;9.74;82.60;100835.13;7364484;19;20355;-65
2023/12/14 01:08:14;;;;;;;;;;;;;;;9.77;82.99;100844.63;7362219;19;19942;-65
2023/12/14 01:10:40;;;;;;;;;;;;;;;9.77;82.73;100839.41;7358225;19;19919;-65
2023/12/14 01:13:05;;;;;;;;;;;;;;;9.77;82.81;100829.84;7365385;19;19930;-64
2023/12/14 01:15:30;;;;;;;;;;;;;;;9.77;82.62;100818.53;7361724;19;19919;-65
2023/12/14 01:17:55;;;;;;;;;;;;;;;9.75;82.26;100810.75;7363923;19;19923;-65
2023/12/14 01:20:21;;;;;;;;;;;;;;;9.74;81.95;100829.06;7370167;19;19911;-65
2023/12/14 01:22:46;;;;;;;;;;;;;;;9.73;82.22;100828.19;7368826;19;19988;-65
2023/12/14 01:25:11;;;;;;;;;;;;;;;9.74;82.21;100834.25;7371182;19;19939;-65
2023/12/14 01:27:37;;;;;;;;;;;;;;;9.72;82.24;100831.66;7357331;19;19927;-65
2023/12/14 01:30:02;;;;;;;;;;;;;;;9.72;82.43;100833.41;7363116;19;20040;-65
2023/12/14 01:32:27;;;;;;;;;;;;;;;9.72;81.97;100826.44;7360997;19;19940;-65
2023/12/14 01:34:52;;;;;;;;;;;;;;;9.72;82.47;100823.84;7361064;19;20351;-65
2023/12/14 01:37:18;;;;;;;;;;;;;;;9.72;82.09;100809.94;7359079;19;19919;-65
2023/12/14 01:39:43;;;;;;;;;;;;;;;9.73;82.54;100809.06;7363933;19;19915;-65
2023/12/14 01:42:08;;;;;;;;;;;;;;;9.73;82.28;100817.75;7358385;19;19939;-65
2023/12/14 01:44:34;;;;;;;;;;;;;;;9.73;82.06;100822.09;7363353;19;19926;-65
2023/12/14 01:46:59;;;;;;;;;;;;;;;9.73;82.50;100822.09;7356358;19;19986;-65
2023/12/14 01:49:24;;;;;;;;;;;;;;;9.73;82.22;100819.47;7362442;19;19943;-65
2023/12/14 01:51:49;;;;;;;;;;;;;;;9.73;82.19;100811.66;7356937;19;20504;-65
2023/12/14 01:54:15;;;;;;;;;;;;;;;9.72;82.31;100802.13;7362856;19;19944;-64
2023/12/14 01:56:40;;;;;;;;;;;;;;;9.70;82.20;100796.09;7359336;19;19944;-65
2023/12/14 01:59:06;;;;;;;;;;;;;;;9.69;81.91;100810.88;7364827;19;19915;-65
2023/12/14 02:01:42;;;;;;;;;;;;;;;9.70;82.05;100807.38;7365745;19;19930;-65
2023/12/14 02:04:07;;;;;;;;;;;;;;;9.69;82.34;100802.19;7366560;19;19919;-65
2023/12/14 02:06:33;;;;;;;;;;;;;;;9.69;82.22;100795.22;7357370;19;19926;-65
2023/12/14 02:08:58;;;;;;;;;;;;;;;9.68;82.39;100796.13;7364678;19;19923;-65
2023/12/14 02:11:23;;;;;;;;;;;;;;;9.68;82.10;100808.28;7357432;19;19999;-65
2023/12/14 02:13:49;;;;;;;;;;;;;;;9.70;82.54;100807.38;7361567;19;19940;-65
2023/12/14 02:16:14;;;;;;;;;;;;;;;9.70;82.11;100806.50;7361676;19;19943;-65
2023/12/14 02:18:40;;;;;;;;;;;;;;;9.70;82.40;100806.50;7354202;19;19946;-65
2023/12/14 02:21:05;;;;;;;;;;;;;;;9.70;82.22;100815.19;7359041;19;19926;-65
2023/12/14 02:23:30;;;;;;;;;;;;;;;9.69;82.00;100821.31;7354778;19;20670;-65
2023/12/14 02:25:56;;;;;;;;;;;;;;;9.69;82.02;100816.09;7354512;19;22371;-65
2023/12/14 02:28:21;;;;;;;;;;;;;;;9.70;82.48;100816.94;7357745;19;19929;-66
2023/12/14 02:30:46;;;;;;;;;;;;;;;9.70;82.57;100827.38;7356779;19;19938;-65
2023/12/14 02:33:11;;;;;;;;;;;;;;;9.71;82.12;100821.28;7362738;19;19927;-65
2023/12/14 02:35:37;;;;;;;;;;;;;;;9.70;82.47;100837.81;7361571;19;20347;-65
2023/12/14 02:38:02;;;;;;;;;;;;;;;9.70;82.43;100836.06;7361951;19;19943;-65
2023/12/14 02:40:27;;;;;;;;;;;;;;;9.70;82.23;100832.59;7360576;19;19918;-65
2023/12/14 02:42:52;;;;;;;;;;;;;;;9.70;82.57;100837.81;7358917;19;19931;-65
2023/12/14 02:45:18;;;;;;;;;;;;;;;9.71;82.14;100836.91;7353847;19;20345;-65
2023/12/14 02:47:43;;;;;;;;;;;;;;;9.71;82.33;100839.53;7360319;19;19914;-65
2023/12/14 02:50:08;;;;;;;;;;;;;;;9.72;82.50;100836.03;7360177;19;19946;-65
2023/12/14 02:52:34;;;;;;;;;;;;;;;9.71;82.46;100831.69;7367427;19;19930;-65
2023/12/14 02:54:59;;;;;;;;;;;;;;;9.73;82.29;100832.53;7357015;19;19942;-65
2023/12/14 02:57:24;;;;;;;;;;;;;;;9.74;82.21;100834.25;7361124;19;19918;-65
2023/12/14 02:59:49;;;;;;;;;;;;;;;9.75;82.41;100846.41;7367512;19;19979;-65
2023/12/14 03:02:15;;;;;;;;;;;;;;;9.75;82.65;100838.59;7364027;19;20383;-65
2023/12/14 03:04:40;;;;;;;;;;;;;;;9.76;82.66;100845.53;7362021;19;19911;-65
2023/12/14 03:07:06;;;;;;;;;;;;;;;9.76;82.75;100838.56;7359403;19;20614;-65
2023/12/14 03:09:31;;;;;;;;;;;;;;;9.77;82.27;100845.47;7356238;19;19939;-65
2023/12/14 03:11:56;;;;;;;;;;;;;;;9.78;82.37;100830.69;7361427;19;19919;-65
2023/12/14 03:14:22;;;;;;;;;;;;;;;9.78;82.73;100846.34;7360073;19;19932;-65
2023/12/14 03:16:48;;;;;;;;;;;;;;;9.79;82.72;100833.28;7361283;19;19943;-65
2023/12/14 03:19:14;;;;;;;;;;;;;;;9.79;82.52;100840.25;7357881;19;20320;-65
2023/12/14 03:21:39;;;;;;;;;;;;;;;9.79;82.31;100832.44;7363248;19;19937;-65
2023/12/14 03:24:04;;;;;;;;;;;;;;;9.79;82.18;100837.66;7361711;19;19919;-64
2023/12/14 03:26:30;;;;;;;;;;;;;;;9.78;82.46;100835.91;7361840;19;20367;-64
2023/12/14 03:28:55;;;;;;;;;;;;;;;9.80;82.46;100844.59;7353077;19;19926;-65
2023/12/14 03:31:20;;;;;;;;;;;;;;;9.78;82.28;100836.78;7362047;19;19947;-65
2023/12/14 03:33:45;;;;;;;;;;;;;;;9.78;82.22;100835.91;7362162;19;20336;-64
2023/12/14 03:36:11;;;;;;;;;;;;;;;9.77;82.49;100823.75;7364796;19;20001;-64
2023/12/14 03:38:36;;;;;;;;;;;;;;;9.79;82.49;100827.22;7359857;19;19939;-64
2023/12/14 03:41:01;;;;;;;;;;;;;;;9.79;82.24;100822.88;7362710;19;19929;-64
2023/12/14 03:43:27;;;;;;;;;;;;;;;9.79;82.40;100816.78;7360988;19;20003;-65
2023/12/14 03:45:52;;;;;;;;;;;;;;;9.81;82.42;100821.06;7360269;19;19931;-65
2023/12/14 03:48:17;;;;;;;;;;;;;;;9.84;82.88;100815.81;7352947;19;19971;-65
2023/12/14 03:50:43;;;;;;;;;;;;;;;9.85;82.64;100811.47;7362893;19;19923;-65
2023/12/14 03:53:09;;;;;;;;;;;;;;;9.87;82.75;100814.88;7363346;19;20790;-65
2023/12/14 03:55:34;;;;;;;;;;;;;;;9.90;82.67;100814.84;7356955;19;20273;-65
2023/12/14 03:57:59;;;;;;;;;;;;;;;9.90;83.13;100812.25;7355621;19;19931;-65
2023/12/14 04:00:24;;;;;;;;;;;;;;;9.96;83.14;100814.72;7355909;19;19954;-65
2023/12/14 04:02:50;;;;;;;;;;;;;;;9.99;83.25;100814.69;7352557;19;19911;-64
2023/12/14 04:05:15;;;;;;;;;;;;;;;10.01;83.23;100822.47;7355513;19;19923;-65
2023/12/14 04:07:40;;;;;;;;;;;;;;;9.98;82.99;100812.94;7361792;19;20528;-65
2023/12/14 04:10:09;;;;;;;;;;;;;;;10.05;82.77;100808.50;7359274;19;19926;-65
2023/12/14 04:12:35;;;;;;;;;;;;;;;10.07;82.80;100823.22;7362501;19;20668;-64
2023/12/14 04:15:00;;;;;;;;;;;;;;;10.08;82.81;100824.94;7352487;19;19919;-65
2023/12/14 04:17:26;;;;;;;;;;;;;;;10.10;82.76;100817.94;7341719;19;20378;-65
2023/12/14 04:19:51;;;;;;;;;;;;;;;10.12;83.09;100823.97;7358413;19;19922;-65
2023/12/14 04:22:16;;;;;;;;;;;;;;;10.12;82.81;100818.75;7357363;19;19923;-65
2023/12/14 04:24:41;;;;;;;;;;;;;;;10.13;82.75;100820.47;7369209;19;19915;-64
2023/12/14 04:27:07;;;;;;;;;;;;;;;10.13;82.44;100828.31;7363098;19;20036;-64
2023/12/14 04:29:32;;;;;;;;;;;;;;;10.12;82.47;100823.97;7367488;19;20423;-64
2023/12/14 04:31:57;;;;;;;;;;;;;;;10.10;82.64;100820.56;7364992;19;20630;-64
2023/12/14 04:34:22;;;;;;;;;;;;;;;10.11;82.79;100822.28;7365884;19;19926;-64
2023/12/14 04:36:48;;;;;;;;;;;;;;;10.10;82.82;100812.72;7358560;19;19919;-65
2023/12/14 04:39:13;;;;;;;;;;;;;;;10.11;82.73;100814.44;7369548;19;19932;-64
2023/12/14 04:41:39;;;;;;;;;;;;;;;10.11;82.80;100824.88;7363924;19;20314;-65
2023/12/14 04:44:04;;;;;;;;;;;;;;;10.12;82.74;100823.13;7367013;19;19915;-65
2023/12/14 04:46:29;;;;;;;;;;;;;;;10.13;82.70;100836.13;7365252;19;21820;-65
2023/12/14 04:48:55;;;;;;;;;;;;;;;10.14;82.70;100852.69;7370316;19;19915;-65
2023/12/14 04:51:20;;;;;;;;;;;;;;;10.15;82.72;100875.28;7368912;19;19949;-65
2023/12/14 04:53:45;;;;;;;;;;;;;;;10.17;83.01;100883.06;7367003;19;19925;-65
2023/12/14 04:56:14;;;;;;;;;;;;;;;10.19;83.20;100887.38;7369973;19;19998;-65
2023/12/14 04:58:39;;;;;;;;;;;;;;;10.21;83.23;100882.97;7361227;19;19953;-64
2023/12/14 05:01:05;;;;;;;;;;;;;;;10.25;83.40;100883.81;7368253;19;19923;-65
2023/12/14 05:03:30;;;;;;;;;;;;;;;10.17;83.09;100864.78;7358422;19;20006;-65
2023/12/14 05:05:56;;;;;;;;;;;;;;;10.30;83.26;100877.63;7365214;19;19926;-65
2023/12/14 05:08:21;;;;;;;;;;;;;;;10.33;83.24;100881.91;7363306;19;20012;-65
2023/12/14 05:10:47;;;;;;;;;;;;;;;10.36;83.13;100887.94;7366950;19;19921;-65
2023/12/14 05:13:12;;;;;;;;;;;;;;;10.38;83.38;100886.16;7366231;19;20486;-65
2023/12/14 05:15:37;;;;;;;;;;;;;;;10.42;83.43;100889.59;7364094;19;19929;-65
2023/12/14 05:18:02;;;;;;;;;;;;;;;10.43;83.13;100883.47;7371411;19;19995;-65
2023/12/14 05:20:28;;;;;;;;;;;;;;;10.47;83.59;100899.94;7368864;19;19945;-64
2023/12/14 05:22:53;;;;;;;;;;;;;;;10.49;83.24;100890.31;7364882;19;20344;-65
2023/12/14 05:25:18;;;;;;;;;;;;;;;10.51;83.39;100899.84;7366496;19;20280;-65
2023/12/14 05:27:43;;;;;;;;;;;;;;;10.54;83.08;100899.81;7364901;19;19979;-64
2023/12/14 05:30:09;;;;;;;;;;;;;;;10.56;83.19;100894.53;7361858;19;19919;-65
2023/12/14 05:32:34;;;;;;;;;;;;;;;10.59;83.15;100899.69;7356532;19;20458;-65
2023/12/14 05:35:00;;;;;;;;;;;;;;;10.60;83.46;100902.28;7364736;19;19962;-65
2023/12/14 05:37:25;;;;;;;;;;;;;;;10.62;83.21;100905.72;7366820;19;19923;-65
2023/12/14 05:39:50;;;;;;;;;;;;;;;10.63;83.51;100910.06;7365530;19;20347;-65
2023/12/14 05:42:18;;;;;;;;;;;;;;;10.65;83.45;100904.81;7368421;19;20212;-65
2023/12/14 05:44:46;;;;;;;;;;;;;;;10.67;83.37;100912.63;7359726;19;20039;-64
2023/12/14 05:47:12;;;;;;;;;;;;;;;10.68;83.00;100909.97;7363726;19;20211;-65
2023/12/14 05:49:40;;;;;;;;;;;;;;;10.68;83.11;100904.75;7363066;19;19914;-64
2023/12/14 05:52:07;;;;;;;;;;;;;;;10.68;83.15;100919.56;7370142;19;19918;-64
2023/12/14 05:54:32;;;;;;;;;;;;;;;10.69;83.06;100931.72;7362677;19;19947;-65
2023/12/14 05:56:57;;;;;;;;;;;;;;;10.69;83.39;100947.38;7366191;19;19907;-64
2023/12/14 05:59:23;;;;;;;;;;;;;;;10.69;83.22;100944.78;7366501;19;19933;-64
2023/12/14 06:01:48;;;;;;;;;;;;;;;10.70;83.33;100938.69;7361169;19;19911;-64
2023/12/14 06:04:13;;;;;;;;;;;;;;;10.70;83.19;100943.91;7368966;19;19937;-64
2023/12/14 06:06:39;;;;;;;;;;;;;;;10.69;82.79;100952.59;7360641;19;20719;-64
2023/12/14 06:09:07;;;;;;;;;;;;;;;10.69;83.12;100950.00;7365098;19;19933;-64
2023/12/14 06:11:32;;;;;;;;;;;;;;;10.69;83.23;100958.69;7363977;19;19915;-64
2023/12/14 06:13:59;;;;;;;;;;;;;;;10.69;82.86;100963.91;7366690;19;19934;-65
2023/12/14 06:16:24;;;;;;;;;;;;;;;10.69;83.01;100969.13;7362986;19;19927;-65
2023/12/14 06:18:50;;;;;;;;;;;;;;;10.70;82.84;100970.03;7363757;19;19943;-65
2023/12/14 06:21:15;;;;;;;;;;;;;;;10.70;82.99;100970.03;7367009;19;21052;-64
2023/12/14 06:23:40;;;;;;;;;;;;;;;10.70;82.53;100980.47;7367078;19;19918;-64
2023/12/14 06:26:06;;;;;;;;;;;;;;;10.70;82.94;100985.69;7360782;19;19947;-65
2023/12/14 06:28:31;;;;;;;;;;;;;;;10.69;82.59;100994.41;7359796;19;20633;-64
2023/12/14 06:30:57;;;;;;;;;;;;;;;10.67;82.69;100997.03;7365479;19;19942;-65
2023/12/14 06:33:22;;;;;;;;;;;;;;;10.65;82.31;101002.31;7365664;19;19922;-65
2023/12/14 06:35:47;;;;;;;;;;;;;;;10.63;82.53;100998.84;7361884;19;19998;-65
2023/12/14 06:38:12;;;;;;;;;;;;;;;10.61;82.04;101003.25;7361879;19;19923;-65
2023/12/14 06:40:38;;;;;;;;;;;;;;;10.57;82.08;101006.78;7365792;19;19918;-65
2023/12/14 06:43:04;;;;;;;;;;;;;;;10.54;82.06;101019.03;7362787;19;20363;-64
2023/12/14 06:45:29;;;;;;;;;;;;;;;10.50;81.61;101014.78;7359728;19;20330;-65
2023/12/14 06:47:54;;;;;;;;;;;;;;;10.45;81.50;101037.50;7361399;19;19923;-65
2023/12/14 06:50:19;;;;;;;;;;;;;;;10.41;81.22;101041.03;7363990;19;19929;-65
2023/12/14 06:52:45;;;;;;;;;;;;;;;10.34;81.33;101035.03;7363795;19;19949;-65
2023/12/14 06:55:10;;;;;;;;;;;;;;;10.30;81.18;101043.81;7364200;19;19964;-65
2023/12/14 06:57:36;;;;;;;;;;;;;;;10.23;81.03;101042.16;7359808;19;19921;-65
2023/12/14 07:00:01;;;;;;;;;;;;;;;10.19;81.26;101045.69;7359521;19;19918;-65
2023/12/14 07:02:26;;;;;;;;;;;;;;;10.12;81.34;101051.00;7362267;19;19926;-65
2023/12/14 07:04:51;;;;;;;;;;;;;;;10.08;81.16;101057.16;7357293;19;20673;-64
2023/12/14 07:07:17;;;;;;;;;;;;;;;10.04;80.84;101068.53;7361639;19;19953;-64
2023/12/14 07:09:43;;;;;;;;;;;;;;;10.00;81.27;101069.47;7370629;19;19929;-65
2023/12/14 07:12:08;;;;;;;;;;;;;;;9.94;81.14;101066.94;7359875;19;20392;-65
2023/12/14 07:14:34;;;;;;;;;;;;;;;9.91;80.89;101077.41;7359161;19;19931;-65
2023/12/14 07:16:59;;;;;;;;;;;;;;;9.85;81.02;101082.72;7359988;19;19953;-65
2023/12/14 07:19:24;;;;;;;;;;;;;;;9.80;81.01;101089.75;7357197;19;19915;-64
2023/12/14 07:21:49;;;;;;;;;;;;;;;9.76;80.68;101082.84;7358509;19;20728;-64
2023/12/14 07:24:15;;;;;;;;;;;;;;;9.71;80.87;101095.06;7356903;19;19931;-64
2023/12/14 07:26:40;;;;;;;;;;;;;;;9.68;80.59;101101.22;7345571;19;19919;-64
2023/12/14 07:29:05;;;;;;;;;;;;;;;9.64;80.56;101106.47;7360019;19;20447;-65
2023/12/14 07:31:30;;;;;;;;;;;;;;;9.58;80.81;101103.06;7356452;19;19918;-64
2023/12/14 07:33:56;;;;;;;;;;;;;;;9.56;80.45;101114.38;7361782;19;19950;-65
2023/12/14 07:36:22;;;;;;;;;;;;;;;9.51;80.67;101119.66;7360687;19;20374;-64
2023/12/14 07:38:47;;;;;;;;;;;;;;;9.47;80.51;101117.94;7358263;19;19915;-64
2023/12/14 07:41:13;;;;;;;;;;;;;;;9.44;80.32;101122.34;7362758;19;20751;-64
2023/12/14 07:43:38;;;;;;;;;;;;;;;9.40;80.34;101123.25;7362428;19;20378;-64
2023/12/14 07:46:03;;;;;;;;;;;;;;;9.37;80.19;101126.75;7362094;19;19974;-64
2023/12/14 07:48:29;;;;;;;;;;;;;;;9.33;80.15;101130.28;7351031;19;19919;-64
2023/12/14 07:50:54;;;;;;;;;;;;;;;9.31;80.08;101142.47;7361164;19;19923;-64
2023/12/14 07:53:19;;;;;;;;;;;;;;;9.28;80.49;101147.72;7361000;19;19923;-64
2023/12/14 07:55:44;;;;;;;;;;;;;;;9.25;80.38;101150.34;7362167;19;19978;-64
2023/12/14 07:58:10;;;;;;;;;;;;;;;9.22;80.14;101152.97;7370134;19;19922;-64
2023/12/14 08:00:35;;;;;;;;;;;;;;;9.19;80.40;101158.22;7368804;19;19915;-64
2023/12/14 08:03:00;;;;;;;;;;;;;;;9.18;80.19;101161.72;7369225;19;19932;-64
2023/12/14 08:05:26;;;;;;;;;;;;;;;9.14;79.99;101162.63;7361785;19;19918;-64
2023/12/14 08:07:52;;;;;;;;;;;;;;;9.12;80.03;101166.97;7365766;19;20584;-64
2023/12/14 08:10:17;;;;;;;;;;;;;;;9.10;80.44;101161.78;7364245;19;19914;-64
2023/12/14 08:12:42;;;;;;;;;;;;;;;9.08;80.21;101160.94;7370478;19;19934;-64
2023/12/14 08:15:08;;;;;;;;;;;;;;;9.01;80.32;101165.31;7366632;19;20495;-64
2023/12/14 08:17:33;;;;;;;;;;;;;;;9.08;80.51;101181.78;7367735;19;19923;-65
2023/12/14 08:19:58;;;;;;;;;;;;;;;9.08;80.82;101189.59;7366523;19;19914;-63
2023/12/14 08:22:24;;;;;;;;;;;;;;;9.09;80.74;101193.94;7369511;19;19990;-64
2023/12/14 08:24:50;;;;;;;;;;;;;;;9.09;80.82;101194.78;7369189;19;19923;-64
2023/12/14 08:27:15;;;;;;;;;;;;;;;9.12;81.46;101199.09;7365440;19;19959;-64
2023/12/14 08:29:40;;;;;;;;;;;;;;;9.14;81.62;101206.91;7367604;19;19934;-64
2023/12/14 08:32:05;;;;;;;;;;;;;;;9.17;81.23;101214.69;7367688;19;19982;-64
2023/12/14 08:34:31;;;;;;;;;;;;;;;9.18;81.29;101224.25;7367288;19;19923;-65
2023/12/14 08:36:56;;;;;;;;;;;;;;;9.22;81.68;101225.94;7358925;19;19947;-64
2023/12/14 08:39:21;;;;;;;;;;;;;;;9.24;82.00;101225.06;7362281;19;19920;-64
2023/12/14 08:41:48;;;;;;;;;;;;;;;9.25;81.81;101226.78;7351830;19;19911;-64
2023/12/14 08:44:13;;;;;;;;;;;;;;;9.28;81.86;101233.72;7353203;19;19927;-64
2023/12/14 08:46:43;;;;;;;;;;;;;;;9.30;82.18;101244.97;7362499;19;19918;-64
2023/12/14 08:49:10;;;;;;;;;;;;;;;9.33;82.05;101244.97;7366821;19;20447;-64
2023/12/14 08:51:35;;;;;;;;;;;;;;;9.34;82.24;101246.69;7366157;19;20009;-64
2023/12/14 08:54:00;;;;;;;;;;;;;;;9.34;81.77;101257.13;7364741;19;19978;-65
2023/12/14 08:56:25;;;;;;;;;;;;;;;9.35;81.84;101258.84;7365692;19;19930;-65
2023/12/14 08:58:52;;;;;;;;;;;;;;;9.36;81.89;101260.56;7361219;19;19918;-64
2023/12/14 09:01:23;;;;;;;;;;;;;;;9.38;81.89;101264.03;7368761;19;19939;-65
2023/12/14 09:03:49;;;;;;;;;;;;;;;9.38;82.26;101269.25;7366218;19;19963;-64
2023/12/14 09:06:15;;;;;;;;;;;;;;;9.38;82.29;101264.03;7365111;19;20547;-64
2023/12/14 09:08:41;;;;;;;;;;;;;;;9.40;82.31;101277.91;7364314;19;19925;-65
2023/12/14 09:11:06;;;;;;;;;;;;;;;9.41;82.03;101281.38;7371874;19;19915;-65
2023/12/14 09:13:31;;;;;;;;;;;;;;;9.41;82.01;101282.25;7366428;19;20002;-64
2023/12/14 09:15:56;;;;;;;;;;;;;;;9.42;82.18;101285.72;7367315;19;19917;-65
2023/12/14 09:18:23;;;;;;;;;;;;;;;9.43;82.48;101282.22;7366731;19;19930;-65
2023/12/14 09:20:51;;;;;;;;;;;;;;;9.43;82.47;101290.03;7366396;19;19923;-64
2023/12/14 09:23:17;;;;;;;;;;;;;;;9.44;82.02;101287.44;7369032;19;20337;-65
2023/12/14 09:25:42;;;;;;;;;;;;;;;9.43;82.26;101293.53;7365545;19;19923;-64
2023/12/14 09:28:07;;;;;;;;;;;;;;;9.44;82.39;101308.28;7363170;19;20403;-65
2023/12/14 09:30:33;;;;;;;;;;;;;;;9.45;82.09;101312.63;7366805;19;19915;-65
2023/12/14 09:32:58;;;;;;;;;;;;;;;9.46;82.35;101319.56;7363662;19;20919;-64
2023/12/14 09:35:23;;;;;;;;;;;;;;;9.46;82.13;101324.78;7360252;19;19918;-65
2023/12/14 09:37:49;;;;;;;;;;;;;;;9.48;82.25;101333.47;7365403;19;19943;-65
2023/12/14 09:40:16;;;;;;;;;;;;;;;9.47;82.29;101331.72;7366911;19;19975;-65
2023/12/14 09:42:42;;;;;;;;;;;;;;;9.48;82.45;101328.25;7363594;19;19929;-65
2023/12/14 09:45:08;;;;;;;;;;;;;;;9.49;82.14;101329.97;7362251;19;19926;-65
2023/12/14 09:47:34;;;;;;;;;;;;;;;9.50;82.27;101342.13;7365733;19;19930;-64
2023/12/14 09:49:59;;;;;;;;;;;;;;;9.51;82.64;101354.28;7364818;19;20354;-65
2023/12/14 09:52:25;;;;;;;;;;;;;;;9.53;82.25;101357.75;7359853;19;20407;-65
2023/12/14 09:54:50;;;;;;;;;;;;;;;9.53;82.63;101355.16;7366502;19;19956;-65
2023/12/14 09:57:15;;;;;;;;;;;;;;;9.55;82.46;101355.13;7366431;19;19923;-65
2023/12/14 09:59:42;;;;;;;;;;;;;;;9.56;82.25;101362.94;7370874;19;19923;-64
2023/12/14 10:02:11;;;;;;;;;;;;;;;9.57;82.36;101364.66;7364971;19;19926;-65
2023/12/14 10:04:37;;;;;;;;;;;;;;;9.59;82.44;101367.28;7367841;19;19914;-65
2023/12/14 10:07:06;;;;;;;;;;;;;;;9.59;82.86;101368.13;7361307;19;19915;-64
2023/12/14 10:09:32;;;;;;;;;;;;;;;9.59;82.70;101373.34;7365646;19;19923;-65
2023/12/14 10:12:05;;;;;;;;;;;;;;;9.61;82.76;101371.59;7359329;19;19922;-65
2023/12/14 10:14:30;;;;;;;;;;;;;;;9.62;82.84;101370.69;7365243;19;19915;-64
2023/12/14 10:16:55;;;;;;;;;;;;;;;9.64;82.76;101377.66;7359599;19;19989;-65
2023/12/14 10:19:21;;;;;;;;;;;;;;;9.66;82.81;101378.50;7368201;19;19922;-64
2023/12/14 10:21:47;;;;;;;;;;;;;;;9.68;82.54;101392.38;7362198;19;19926;-65
2023/12/14 10:24:13;;;;;;;;;;;;;;;9.69;83.10;101388.94;7362209;19;19918;-65
2023/12/14 10:26:38;;;;;;;;;;;;;;;9.70;82.88;101401.09;7362748;19;20942;-64
2023/12/14 10:29:04;;;;;;;;;;;;;;;9.71;82.66;101402.81;7361295;19;19918;-65
2023/12/14 10:31:30;;;;;;;;;;;;;;;9.74;82.96;101418.44;7365143;19;19915;-64
2023/12/14 10:33:56;;;;;;;;;;;;;;;9.75;83.00;101417.56;7362519;19;19915;-64
2023/12/14 10:36:24;;;;;;;;;;;;;;;9.76;82.84;101421.91;7354984;19;20905;-65
2023/12/14 10:38:52;;;;;;;;;;;;;;;9.78;83.05;101431.47;7357973;19;20708;-65
2023/12/14 10:41:17;;;;;;;;;;;;;;;9.78;82.61;101435.78;7358698;19;20033;-64
2023/12/14 10:43:44;;;;;;;;;;;;;;;9.79;82.72;101432.31;7360639;19;20718;-65
2023/12/14 10:46:10;;;;;;;;;;;;;;;9.82;83.06;101437.50;7355631;19;20372;-65
2023/12/14 10:48:35;;;;;;;;;;;;;;;9.83;82.81;101432.28;7358452;19;19949;-65
2023/12/14 10:51:05;;;;;;;;;;;;;;;9.85;82.83;101442.69;7356491;19;21381;-65
2023/12/14 10:53:31;;;;;;;;;;;;;;;9.86;82.75;101439.22;7361720;19;19926;-65
2023/12/14 10:56:00;;;;;;;;;;;;;;;9.87;83.16;101428.75;7358856;19;19915;-65
2023/12/14 10:58:25;;;;;;;;;;;;;;;9.89;82.78;101439.19;7362238;19;19918;-65
2023/12/14 11:01:02;;;;;;;;;;;;;;;9.90;83.31;101440.91;7358278;19;19922;-64
2023/12/14 11:03:33;;;;;;;;;;;;;;;9.91;83.05;101431.34;7359277;19;19923;-64
2023/12/14 11:06:00;;;;;;;;;;;;;;;9.91;82.92;101440.03;7358956;19;19926;-65
2023/12/14 11:08:25;;;;;;;;;;;;;;;9.92;83.00;101443.50;7359707;19;19937;-65
2023/12/14 11:10:57;;;;;;;;;;;;;;;9.92;83.02;101444.38;7359673;19;19911;-65
2023/12/14 11:13:23;;;;;;;;;;;;;;;9.94;82.81;101431.34;7361802;19;19998;-65
2023/12/14 11:15:50;;;;;;;;;;;;;;;9.96;83.26;101429.56;7359116;19;19915;-65
2023/12/14 11:18:15;;;;;;;;;;;;;;;9.96;83.37;101440.84;7358414;19;19934;-65
2023/12/14 11:20:50;;;;;;;;;;;;;;;9.97;83.00;101442.59;7356232;19;20322;-65
2023/12/14 11:23:17;;;;;;;;;;;;;;;9.92;83.32;101433.94;7361060;19;19930;-65
2023/12/14 11:25:43;;;;;;;;;;;;;;;10.00;83.31;101442.56;7355590;19;20935;-65
2023/12/14 11:28:08;;;;;;;;;;;;;;;10.02;83.37;101447.78;7356223;19;19932;-65
2023/12/14 11:30:34;;;;;;;;;;;;;;;10.05;83.49;101453.84;7359283;19;20297;-65
2023/12/14 11:33:00;;;;;;;;;;;;;;;10.07;83.72;101454.69;7367638;19;19923;-65
2023/12/14 11:35:25;;;;;;;;;;;;;;;10.10;83.17;101459.88;7365091;19;19927;-65
2023/12/14 11:37:51;;;;;;;;;;;;;;;10.13;83.43;101458.97;7374401;19;19959;-65
2023/12/14 11:40:22;;;;;;;;;;;;;;;10.18;83.49;101461.53;7364309;19;20431;-65
2023/12/14 11:42:57;;;;;;;;;;;;;;;10.21;83.32;101461.53;7367041;19;19919;-65
2023/12/14 11:45:23;;;;;;;;;;;;;;;10.24;83.23;101458.91;7363328;19;19935;-65
2023/12/14 11:47:48;;;;;;;;;;;;;;;10.29;83.40;101467.56;7362833;19;19925;-65
2023/12/14 11:50:16;;;;;;;;;;;;;;;10.32;83.50;101462.31;7363735;19;19911;-65
2023/12/14 11:52:41;;;;;;;;;;;;;;;10.36;83.34;101456.19;7367668;19;19941;-65
2023/12/14 11:55:07;;;;;;;;;;;;;;;10.37;83.32;101463.16;7368013;19;19911;-65
2023/12/14 11:57:32;;;;;;;;;;;;;;;10.40;83.68;101463.13;7366935;19;20195;-65
2023/12/14 11:59:59;;;;;;;;;;;;;;;10.43;83.63;101472.66;7366222;19;20360;-65
2023/12/14 12:02:25;;;;;;;;;;;;;;;10.45;83.59;101476.16;7367469;19;20022;-65
2023/12/14 12:04:51;;;;;;;;;;;;;;;10.48;83.25;101476.09;7367463;19;19918;-65
2023/12/14 12:07:17;;;;;;;;;;;;;;;10.50;83.47;101474.34;7365177;19;19929;-65
2023/12/14 12:09:42;;;;;;;;;;;;;;;10.51;83.16;101471.72;7366793;19;19923;-65
2023/12/14 12:12:08;;;;;;;;;;;;;;;10.51;83.19;101471.72;7368995;19;19943;-65
2023/12/14 12:14:33;;;;;;;;;;;;;;;10.53;83.28;101482.13;7368203;19;19935;-65
2023/12/14 12:16:59;;;;;;;;;;;;;;;10.53;82.85;101475.16;7368468;19;20293;-65
2023/12/14 12:19:24;;;;;;;;;;;;;;;10.54;83.22;101482.16;7363522;19;19938;-65
2023/12/14 12:21:49;;;;;;;;;;;;;;;10.56;82.94;101485.59;7363910;19;19987;-65
2023/12/14 12:24:14;;;;;;;;;;;;;;;10.56;82.96;101490.81;7362627;19;20336;-64
2023/12/14 12:26:40;;;;;;;;;;;;;;;10.57;83.30;101492.53;7365740;19;19991;-65
2023/12/14 12:29:06;;;;;;;;;;;;;;;10.58;83.26;101494.25;7359742;19;19970;-65
2023/12/14 12:31:31;;;;;;;;;;;;;;;10.60;83.18;101492.53;7373376;19;20385;-65
2023/12/14 12:33:56;;;;;;;;;;;;;;;10.61;83.42;101496.84;7361408;19;19978;-65
2023/12/14 12:36:22;;;;;;;;;;;;;;;10.65;83.43;101492.47;7365937;19;20506;-65
2023/12/14 12:38:47;;;;;;;;;;;;;;;10.68;83.62;101492.44;7364962;19;20343;-65
2023/12/14 12:41:12;;;;;;;;;;;;;;;10.73;83.40;101481.94;7362507;19;20419;-65